sensor_id;sensor_type;location;lat;lon;timestamp;P1;durP1;ratioP1;P2;durP2;ratioP2
65368;SDS011;51970;53.484;49.488;2022-10-22T00:01:36;8.27;;;5.30;;
65368;SDS011;51970;53.484;49.488;2022-10-22T00:04:03;8.32;;;6.10;;
65368;SDS011;51970;53.484;49.488;2022-10-22T00:06:30;15.27;;;5.93;;
65368;SDS011;51970;53.484;49.488;2022-10-22T00:08:56;8.88;;;6.53;;
65368;SDS011;51970;53.484;49.488;2022-10-22T00:11:22;8.65;;;5.32;;
65368;SDS011;51970;53.484;49.488;2022-10-22T00:13:48;8.52;;;4.82;;
65368;SDS011;51970;53.484;49.488;2022-10-22T00:16:15;6.80;;;4.60;;
65368;SDS011;51970;53.484;49.488;2022-10-22T00:18:40;11.48;;;6.60;;
65368;SDS011;51970;53.484;49.488;2022-10-22T00:21:07;8.18;;;5.30;;
65368;SDS011;51970;53.484;49.488;2022-10-22T00:23:33;7.43;;;5.10;;
65368;SDS011;51970;53.484;49.488;2022-10-22T00:25:59;9.20;;;5.28;;
65368;SDS011;51970;53.484;49.488;2022-10-22T00:28:25;6.18;;;3.03;;
65368;SDS011;51970;53.484;49.488;2022-10-22T00:30:55;7.10;;;4.70;;
65368;SDS011;51970;53.484;49.488;2022-10-22T00:33:23;8.80;;;5.57;;
65368;SDS011;51970;53.484;49.488;2022-10-22T00:35:50;9.00;;;4.85;;
65368;SDS011;51970;53.484;49.488;2022-10-22T00:38:16;6.13;;;2.42;;
65368;SDS011;51970;53.484;49.488;2022-10-22T00:40:42;7.40;;;4.75;;
65368;SDS011;51970;53.484;49.488;2022-10-22T00:43:15;8.18;;;6.20;;
65368;SDS011;51970;53.484;49.488;2022-10-22T00:45:43;7.00;;;4.93;;
65368;SDS011;51970;53.484;49.488;2022-10-22T00:48:17;5.30;;;2.25;;
65368;SDS011;51970;53.484;49.488;2022-10-22T00:50:52;7.95;;;5.22;;
65368;SDS011;51970;53.484;49.488;2022-10-22T00:53:25;7.47;;;4.95;;
65368;SDS011;51970;53.484;49.488;2022-10-22T00:55:54;7.97;;;5.38;;
65368;SDS011;51970;53.484;49.488;2022-10-22T00:58:23;7.13;;;4.82;;
65368;SDS011;51970;53.484;49.488;2022-10-22T01:00:52;6.03;;;2.95;;
65368;SDS011;51970;53.484;49.488;2022-10-22T01:03:19;7.85;;;6.07;;
65368;SDS011;51970;53.484;49.488;2022-10-22T01:05:55;6.45;;;2.63;;
65368;SDS011;51970;53.484;49.488;2022-10-22T01:08:29;7.47;;;4.88;;
65368;SDS011;51970;53.484;49.488;2022-10-22T01:11:12;6.85;;;2.65;;
65368;SDS011;51970;53.484;49.488;2022-10-22T01:16:32;6.85;;;4.85;;
65368;SDS011;51970;53.484;49.488;2022-10-22T01:19:19;11.23;;;3.42;;
65368;SDS011;51970;53.484;49.488;2022-10-22T01:21:59;8.70;;;5.43;;
65368;SDS011;51970;53.484;49.488;2022-10-22T01:30:00;9.18;;;3.55;;
65368;SDS011;51970;53.484;49.488;2022-10-22T01:32:42;8.15;;;5.15;;
65368;SDS011;51970;53.484;49.488;2022-10-22T01:35:17;10.43;;;6.72;;
65368;SDS011;51970;53.484;49.488;2022-10-22T01:37:49;11.93;;;6.88;;
65368;SDS011;51970;53.484;49.488;2022-10-22T01:40:22;10.30;;;6.55;;
65368;SDS011;51970;53.484;49.488;2022-10-22T01:42:56;11.68;;;6.72;;
65368;SDS011;51970;53.484;49.488;2022-10-22T01:45:24;10.90;;;7.10;;
65368;SDS011;51970;53.484;49.488;2022-10-22T01:48:02;10.90;;;6.30;;
65368;SDS011;51970;53.484;49.488;2022-10-22T01:53:43;7.43;;;5.10;;
65368;SDS011;51970;53.484;49.488;2022-10-22T01:59:43;6.88;;;3.53;;
65368;SDS011;51970;53.484;49.488;2022-10-22T02:07:33;9.00;;;5.55;;
65368;SDS011;51970;53.484;49.488;2022-10-22T02:12:31;11.52;;;5.70;;
65368;SDS011;51970;53.484;49.488;2022-10-22T02:14:59;8.70;;;5.75;;
65368;SDS011;51970;53.484;49.488;2022-10-22T02:17:27;6.18;;;2.78;;
65368;SDS011;51970;53.484;49.488;2022-10-22T02:20:00;10.35;;;6.07;;
65368;SDS011;51970;53.484;49.488;2022-10-22T02:22:35;15.38;;;6.57;;
65368;SDS011;51970;53.484;49.488;2022-10-22T02:25:02;10.45;;;6.10;;
65368;SDS011;51970;53.484;49.488;2022-10-22T02:27:31;9.23;;;6.20;;
65368;SDS011;51970;53.484;49.488;2022-10-22T02:30:20;6.88;;;2.88;;
65368;SDS011;51970;53.484;49.488;2022-10-22T02:32:52;8.02;;;5.50;;
65368;SDS011;51970;53.484;49.488;2022-10-22T02:35:24;9.90;;;5.80;;
65368;SDS011;51970;53.484;49.488;2022-10-22T02:37:52;8.23;;;5.63;;
65368;SDS011;51970;53.484;49.488;2022-10-22T02:40:20;7.20;;;3.45;;
65368;SDS011;51970;53.484;49.488;2022-10-22T02:42:46;9.70;;;5.15;;
65368;SDS011;51970;53.484;49.488;2022-10-22T02:45:15;10.25;;;3.65;;
65368;SDS011;51970;53.484;49.488;2022-10-22T02:47:43;9.90;;;5.65;;
65368;SDS011;51970;53.484;49.488;2022-10-22T02:50:09;9.60;;;6.80;;
65368;SDS011;51970;53.484;49.488;2022-10-22T02:52:36;9.70;;;3.40;;
65368;SDS011;51970;53.484;49.488;2022-10-22T02:55:03;6.43;;;3.17;;
65368;SDS011;51970;53.484;49.488;2022-10-22T02:57:30;10.75;;;6.55;;
65368;SDS011;51970;53.484;49.488;2022-10-22T02:59:56;20.33;;;6.72;;
65368;SDS011;51970;53.484;49.488;2022-10-22T03:02:22;11.48;;;6.60;;
65368;SDS011;51970;53.484;49.488;2022-10-22T03:04:48;10.35;;;7.32;;
65368;SDS011;51970;53.484;49.488;2022-10-22T03:07:14;11.57;;;6.95;;
65368;SDS011;51970;53.484;49.488;2022-10-22T03:09:40;12.93;;;6.75;;
65368;SDS011;51970;53.484;49.488;2022-10-22T03:12:06;8.13;;;4.28;;
65368;SDS011;51970;53.484;49.488;2022-10-22T03:14:34;9.30;;;4.28;;
65368;SDS011;51970;53.484;49.488;2022-10-22T03:17:00;19.40;;;8.10;;
65368;SDS011;51970;53.484;49.488;2022-10-22T03:19:26;11.57;;;6.10;;
65368;SDS011;51970;53.484;49.488;2022-10-22T03:21:54;19.60;;;9.50;;
65368;SDS011;51970;53.484;49.488;2022-10-22T03:24:26;23.25;;;10.20;;
65368;SDS011;51970;53.484;49.488;2022-10-22T03:26:54;19.27;;;7.10;;
65368;SDS011;51970;53.484;49.488;2022-10-22T03:29:21;24.75;;;10.55;;
65368;SDS011;51970;53.484;49.488;2022-10-22T03:31:50;23.13;;;11.20;;
65368;SDS011;51970;53.484;49.488;2022-10-22T03:34:16;20.83;;;10.90;;
65368;SDS011;51970;53.484;49.488;2022-10-22T03:36:42;22.23;;;9.88;;
65368;SDS011;51970;53.484;49.488;2022-10-22T03:39:09;19.17;;;11.60;;
65368;SDS011;51970;53.484;49.488;2022-10-22T03:41:38;22.52;;;9.48;;
65368;SDS011;51970;53.484;49.488;2022-10-22T03:44:05;18.88;;;10.20;;
65368;SDS011;51970;53.484;49.488;2022-10-22T03:46:31;16.25;;;10.02;;
65368;SDS011;51970;53.484;49.488;2022-10-22T03:48:57;22.25;;;9.32;;
65368;SDS011;51970;53.484;49.488;2022-10-22T03:51:25;17.05;;;6.70;;
65368;SDS011;51970;53.484;49.488;2022-10-22T03:53:52;26.02;;;9.32;;
65368;SDS011;51970;53.484;49.488;2022-10-22T03:56:20;13.88;;;8.68;;
65368;SDS011;51970;53.484;49.488;2022-10-22T03:58:48;14.07;;;8.57;;
65368;SDS011;51970;53.484;49.488;2022-10-22T04:01:15;15.18;;;8.95;;
65368;SDS011;51970;53.484;49.488;2022-10-22T04:03:41;20.40;;;7.88;;
65368;SDS011;51970;53.484;49.488;2022-10-22T04:06:08;19.00;;;9.30;;
65368;SDS011;51970;53.484;49.488;2022-10-22T04:08:37;15.50;;;7.18;;
65368;SDS011;51970;53.484;49.488;2022-10-22T04:11:04;15.70;;;8.95;;
65368;SDS011;51970;53.484;49.488;2022-10-22T04:13:32;22.38;;;8.30;;
65368;SDS011;51970;53.484;49.488;2022-10-22T04:16:08;18.08;;;7.80;;
65368;SDS011;51970;53.484;49.488;2022-10-22T04:18:36;12.27;;;7.05;;
65368;SDS011;51970;53.484;49.488;2022-10-22T04:21:02;9.57;;;5.63;;
65368;SDS011;51970;53.484;49.488;2022-10-22T04:23:31;11.38;;;7.75;;
65368;SDS011;51970;53.484;49.488;2022-10-22T04:26:01;9.20;;;6.25;;
65368;SDS011;51970;53.484;49.488;2022-10-22T04:28:29;12.65;;;8.10;;
65368;SDS011;51970;53.484;49.488;2022-10-22T04:30:56;7.07;;;3.40;;
65368;SDS011;51970;53.484;49.488;2022-10-22T04:33:22;8.80;;;3.08;;
65368;SDS011;51970;53.484;49.488;2022-10-22T04:35:48;6.35;;;2.22;;
65368;SDS011;51970;53.484;49.488;2022-10-22T04:38:15;10.98;;;4.78;;
65368;SDS011;51970;53.484;49.488;2022-10-22T04:40:41;8.20;;;2.72;;
65368;SDS011;51970;53.484;49.488;2022-10-22T04:43:07;9.82;;;4.95;;
65368;SDS011;51970;53.484;49.488;2022-10-22T04:45:34;6.03;;;2.45;;
65368;SDS011;51970;53.484;49.488;2022-10-22T04:48:05;8.63;;;4.78;;
65368;SDS011;51970;53.484;49.488;2022-10-22T04:50:32;10.77;;;5.00;;
65368;SDS011;51970;53.484;49.488;2022-10-22T04:52:59;9.63;;;6.45;;
65368;SDS011;51970;53.484;49.488;2022-10-22T04:55:28;7.90;;;6.07;;
65368;SDS011;51970;53.484;49.488;2022-10-22T04:57:55;14.18;;;6.07;;
65368;SDS011;51970;53.484;49.488;2022-10-22T05:00:21;6.65;;;4.80;;
65368;SDS011;51970;53.484;49.488;2022-10-22T05:02:48;7.43;;;4.43;;
65368;SDS011;51970;53.484;49.488;2022-10-22T05:05:16;6.47;;;4.63;;
65368;SDS011;51970;53.484;49.488;2022-10-22T05:07:43;10.20;;;5.75;;
65368;SDS011;51970;53.484;49.488;2022-10-22T05:10:10;7.45;;;4.72;;
65368;SDS011;51970;53.484;49.488;2022-10-22T05:12:37;8.63;;;5.53;;
65368;SDS011;51970;53.484;49.488;2022-10-22T05:15:04;7.05;;;4.25;;
65368;SDS011;51970;53.484;49.488;2022-10-22T05:17:33;7.15;;;4.47;;
65368;SDS011;51970;53.484;49.488;2022-10-22T05:20:02;8.20;;;5.35;;
65368;SDS011;51970;53.484;49.488;2022-10-22T05:22:29;7.13;;;4.40;;
65368;SDS011;51970;53.484;49.488;2022-10-22T05:24:57;3.55;;;1.35;;
65368;SDS011;51970;53.484;49.488;2022-10-22T05:27:25;4.90;;;2.60;;
65368;SDS011;51970;53.484;49.488;2022-10-22T05:29:53;6.38;;;3.40;;
65368;SDS011;51970;53.484;49.488;2022-10-22T05:32:19;4.40;;;1.50;;
65368;SDS011;51970;53.484;49.488;2022-10-22T05:35:16;6.35;;;4.57;;
65368;SDS011;51970;53.484;49.488;2022-10-22T05:37:44;7.57;;;5.32;;
65368;SDS011;51970;53.484;49.488;2022-10-22T05:40:24;6.80;;;4.00;;
65368;SDS011;51970;53.484;49.488;2022-10-22T05:42:50;14.48;;;4.25;;
65368;SDS011;51970;53.484;49.488;2022-10-22T05:45:17;5.78;;;4.43;;
65368;SDS011;51970;53.484;49.488;2022-10-22T05:47:43;5.72;;;2.42;;
65368;SDS011;51970;53.484;49.488;2022-10-22T05:50:10;6.85;;;4.30;;
65368;SDS011;51970;53.484;49.488;2022-10-22T05:52:41;8.18;;;7.32;;
65368;SDS011;51970;53.484;49.488;2022-10-22T05:55:09;11.88;;;4.50;;
65368;SDS011;51970;53.484;49.488;2022-10-22T05:57:35;5.70;;;2.08;;
65368;SDS011;51970;53.484;49.488;2022-10-22T06:00:05;8.15;;;4.55;;
65368;SDS011;51970;53.484;49.488;2022-10-22T06:02:34;9.93;;;4.60;;
65368;SDS011;51970;53.484;49.488;2022-10-22T06:05:01;6.93;;;4.65;;
65368;SDS011;51970;53.484;49.488;2022-10-22T06:07:28;14.07;;;5.75;;
65368;SDS011;51970;53.484;49.488;2022-10-22T06:09:59;5.22;;;2.25;;
65368;SDS011;51970;53.484;49.488;2022-10-22T06:12:27;5.05;;;1.92;;
65368;SDS011;51970;53.484;49.488;2022-10-22T06:14:58;13.80;;;4.20;;
65368;SDS011;51970;53.484;49.488;2022-10-22T06:17:34;6.70;;;4.40;;
65368;SDS011;51970;53.484;49.488;2022-10-22T06:20:04;5.90;;;4.43;;
65368;SDS011;51970;53.484;49.488;2022-10-22T06:22:31;6.38;;;2.03;;
65368;SDS011;51970;53.484;49.488;2022-10-22T06:24:59;8.60;;;5.15;;
65368;SDS011;51970;53.484;49.488;2022-10-22T06:27:25;10.95;;;5.70;;
65368;SDS011;51970;53.484;49.488;2022-10-22T06:29:51;11.38;;;5.43;;
65368;SDS011;51970;53.484;49.488;2022-10-22T06:32:19;12.38;;;5.85;;
65368;SDS011;51970;53.484;49.488;2022-10-22T06:34:46;12.38;;;6.05;;
65368;SDS011;51970;53.484;49.488;2022-10-22T06:37:12;7.28;;;6.05;;
65368;SDS011;51970;53.484;49.488;2022-10-22T06:39:40;8.73;;;4.85;;
65368;SDS011;51970;53.484;49.488;2022-10-22T06:42:16;16.08;;;5.35;;
65368;SDS011;51970;53.484;49.488;2022-10-22T06:44:42;10.00;;;5.25;;
65368;SDS011;51970;53.484;49.488;2022-10-22T06:47:09;10.45;;;5.38;;
65368;SDS011;51970;53.484;49.488;2022-10-22T06:49:43;9.93;;;5.45;;
65368;SDS011;51970;53.484;49.488;2022-10-22T06:52:09;12.93;;;8.57;;
65368;SDS011;51970;53.484;49.488;2022-10-22T06:54:37;11.55;;;6.20;;
65368;SDS011;51970;53.484;49.488;2022-10-22T06:57:04;10.60;;;6.22;;
65368;SDS011;51970;53.484;49.488;2022-10-22T06:59:49;11.70;;;7.32;;
65368;SDS011;51970;53.484;49.488;2022-10-22T07:02:16;11.50;;;5.80;;
65368;SDS011;51970;53.484;49.488;2022-10-22T07:04:56;14.20;;;5.97;;
65368;SDS011;51970;53.484;49.488;2022-10-22T07:07:22;8.20;;;5.32;;
65368;SDS011;51970;53.484;49.488;2022-10-22T07:09:52;10.80;;;5.75;;
65368;SDS011;51970;53.484;49.488;2022-10-22T07:12:24;10.38;;;5.70;;
65368;SDS011;51970;53.484;49.488;2022-10-22T07:14:52;13.57;;;5.85;;
65368;SDS011;51970;53.484;49.488;2022-10-22T07:19:49;9.23;;;5.30;;
65368;SDS011;51970;53.484;49.488;2022-10-22T07:22:18;8.77;;;5.28;;
65368;SDS011;51970;53.484;49.488;2022-10-22T07:24:44;7.68;;;4.88;;
65368;SDS011;51970;53.484;49.488;2022-10-22T07:27:10;12.73;;;5.35;;
65368;SDS011;51970;53.484;49.488;2022-10-22T07:29:36;11.35;;;6.13;;
65368;SDS011;51970;53.484;49.488;2022-10-22T07:32:02;12.65;;;5.93;;
65368;SDS011;51970;53.484;49.488;2022-10-22T07:34:28;11.27;;;6.20;;
65368;SDS011;51970;53.484;49.488;2022-10-22T07:36:54;9.90;;;5.63;;
65368;SDS011;51970;53.484;49.488;2022-10-22T07:39:22;11.35;;;6.40;;
65368;SDS011;51970;53.484;49.488;2022-10-22T07:41:50;11.32;;;6.68;;
65368;SDS011;51970;53.484;49.488;2022-10-22T07:44:19;15.35;;;7.75;;
65368;SDS011;51970;53.484;49.488;2022-10-22T07:46:48;8.23;;;5.22;;
65368;SDS011;51970;53.484;49.488;2022-10-22T07:49:34;11.98;;;6.97;;
65368;SDS011;51970;53.484;49.488;2022-10-22T07:52:00;12.00;;;6.20;;
65368;SDS011;51970;53.484;49.488;2022-10-22T07:54:29;8.05;;;5.35;;
65368;SDS011;51970;53.484;49.488;2022-10-22T07:57:04;8.98;;;5.07;;
65368;SDS011;51970;53.484;49.488;2022-10-22T07:59:32;10.27;;;4.20;;
65368;SDS011;51970;53.484;49.488;2022-10-22T08:02:08;7.13;;;6.18;;
65368;SDS011;51970;53.484;49.488;2022-10-22T08:04:37;7.10;;;4.30;;
65368;SDS011;51970;53.484;49.488;2022-10-22T08:07:04;9.32;;;4.65;;
65368;SDS011;51970;53.484;49.488;2022-10-22T08:09:30;7.07;;;4.65;;
65368;SDS011;51970;53.484;49.488;2022-10-22T08:12:05;8.77;;;4.50;;
65368;SDS011;51970;53.484;49.488;2022-10-22T08:14:34;6.22;;;4.43;;
65368;SDS011;51970;53.484;49.488;2022-10-22T08:17:01;8.88;;;5.28;;
65368;SDS011;51970;53.484;49.488;2022-10-22T08:19:29;5.88;;;3.92;;
65368;SDS011;51970;53.484;49.488;2022-10-22T08:21:57;6.00;;;4.18;;
65368;SDS011;51970;53.484;49.488;2022-10-22T08:24:23;5.50;;;4.20;;
65368;SDS011;51970;53.484;49.488;2022-10-22T08:26:51;6.40;;;4.05;;
65368;SDS011;51970;53.484;49.488;2022-10-22T08:29:21;7.03;;;4.20;;
65368;SDS011;51970;53.484;49.488;2022-10-22T08:31:48;6.25;;;4.30;;
65368;SDS011;51970;53.484;49.488;2022-10-22T08:34:15;5.32;;;4.30;;
65368;SDS011;51970;53.484;49.488;2022-10-22T08:36:43;9.27;;;4.47;;
65368;SDS011;51970;53.484;49.488;2022-10-22T08:39:09;5.55;;;3.75;;
65368;SDS011;51970;53.484;49.488;2022-10-22T08:41:37;5.95;;;4.63;;
65368;SDS011;51970;53.484;49.488;2022-10-22T08:44:26;5.72;;;4.05;;
65368;SDS011;51970;53.484;49.488;2022-10-22T08:49:46;5.93;;;3.92;;
65368;SDS011;51970;53.484;49.488;2022-10-22T08:52:13;6.32;;;4.35;;
65368;SDS011;51970;53.484;49.488;2022-10-22T08:54:49;8.07;;;4.03;;
65368;SDS011;51970;53.484;49.488;2022-10-22T08:57:21;6.95;;;5.88;;
65368;SDS011;51970;53.484;49.488;2022-10-22T09:05:41;5.72;;;4.28;;
65368;SDS011;51970;53.484;49.488;2022-10-22T09:08:19;5.65;;;3.60;;
65368;SDS011;51970;53.484;49.488;2022-10-22T09:11:01;6.53;;;4.05;;
65368;SDS011;51970;53.484;49.488;2022-10-22T09:13:32;4.82;;;4.20;;
65368;SDS011;51970;53.484;49.488;2022-10-22T09:16:19;6.95;;;4.80;;
65368;SDS011;51970;53.484;49.488;2022-10-22T09:21:35;5.82;;;3.90;;
65368;SDS011;51970;53.484;49.488;2022-10-22T09:24:38;5.13;;;4.05;;
65368;SDS011;51970;53.484;49.488;2022-10-22T09:27:18;8.00;;;4.05;;
65368;SDS011;51970;53.484;49.488;2022-10-22T09:29:48;6.82;;;4.30;;
65368;SDS011;51970;53.484;49.488;2022-10-22T09:32:16;6.97;;;5.53;;
65368;SDS011;51970;53.484;49.488;2022-10-22T09:34:43;7.70;;;4.22;;
65368;SDS011;51970;53.484;49.488;2022-10-22T09:37:10;5.78;;;4.80;;
65368;SDS011;51970;53.484;49.488;2022-10-22T09:39:39;10.13;;;4.30;;
65368;SDS011;51970;53.484;49.488;2022-10-22T09:42:09;6.57;;;3.88;;
65368;SDS011;51970;53.484;49.488;2022-10-22T09:44:36;6.88;;;4.22;;
65368;SDS011;51970;53.484;49.488;2022-10-22T09:47:04;5.68;;;4.07;;
65368;SDS011;51970;53.484;49.488;2022-10-22T09:49:33;6.90;;;5.47;;
65368;SDS011;51970;53.484;49.488;2022-10-22T09:52:01;7.88;;;4.60;;
65368;SDS011;51970;53.484;49.488;2022-10-22T09:54:41;6.82;;;4.25;;
65368;SDS011;51970;53.484;49.488;2022-10-22T09:57:15;5.97;;;3.97;;
65368;SDS011;51970;53.484;49.488;2022-10-22T09:59:43;10.50;;;3.60;;
65368;SDS011;51970;53.484;49.488;2022-10-22T10:02:15;7.28;;;4.72;;
65368;SDS011;51970;53.484;49.488;2022-10-22T10:04:49;6.82;;;4.85;;
65368;SDS011;51970;53.484;49.488;2022-10-22T10:07:23;7.15;;;4.15;;
65368;SDS011;51970;53.484;49.488;2022-10-22T10:09:52;5.03;;;3.58;;
65368;SDS011;51970;53.484;49.488;2022-10-22T10:15:04;6.40;;;4.13;;
65368;SDS011;51970;53.484;49.488;2022-10-22T10:26:34;6.18;;;4.40;;
65368;SDS011;51970;53.484;49.488;2022-10-22T10:29:21;6.30;;;4.03;;
65368;SDS011;51970;53.484;49.488;2022-10-22T10:38:18;10.30;;;4.70;;
65368;SDS011;51970;53.484;49.488;2022-10-22T10:41:18;7.13;;;3.95;;
65368;SDS011;51970;53.484;49.488;2022-10-22T10:50:22;6.95;;;5.50;;
65368;SDS011;51970;53.484;49.488;2022-10-22T11:01:28;8.95;;;4.57;;
65368;SDS011;51970;53.484;49.488;2022-10-22T11:04:10;8.90;;;5.78;;
65368;SDS011;51970;53.484;49.488;2022-10-22T11:06:42;8.18;;;4.53;;
65368;SDS011;51970;53.484;49.488;2022-10-22T11:12:17;6.13;;;4.20;;
65368;SDS011;51970;53.484;49.488;2022-10-22T11:15:06;8.27;;;4.65;;
65368;SDS011;51970;53.484;49.488;2022-10-22T11:18:11;8.60;;;5.70;;
65368;SDS011;51970;53.484;49.488;2022-10-22T11:23:41;7.97;;;4.60;;
65368;SDS011;51970;53.484;49.488;2022-10-22T11:26:21;6.72;;;3.83;;
65368;SDS011;51970;53.484;49.488;2022-10-22T11:29:21;9.23;;;5.00;;
65368;SDS011;51970;53.484;49.488;2022-10-22T11:31:50;9.98;;;4.53;;
65368;SDS011;51970;53.484;49.488;2022-10-22T11:34:28;5.88;;;3.85;;
65368;SDS011;51970;53.484;49.488;2022-10-22T11:37:10;8.23;;;4.82;;
65368;SDS011;51970;53.484;49.488;2022-10-22T11:39:51;15.95;;;5.05;;
65368;SDS011;51970;53.484;49.488;2022-10-22T11:42:32;8.65;;;6.05;;
65368;SDS011;51970;53.484;49.488;2022-10-22T11:54:00;6.10;;;4.00;;
65368;SDS011;51970;53.484;49.488;2022-10-22T11:56:57;6.75;;;4.25;;
65368;SDS011;51970;53.484;49.488;2022-10-22T12:03:15;7.45;;;4.93;;
65368;SDS011;51970;53.484;49.488;2022-10-22T12:06:15;8.50;;;5.90;;
65368;SDS011;51970;53.484;49.488;2022-10-22T12:09:13;16.40;;;6.07;;
65368;SDS011;51970;53.484;49.488;2022-10-22T12:11:46;10.02;;;4.32;;
65368;SDS011;51970;53.484;49.488;2022-10-22T12:17:02;9.00;;;5.45;;
65368;SDS011;51970;53.484;49.488;2022-10-22T12:22:16;8.18;;;4.88;;
65368;SDS011;51970;53.484;49.488;2022-10-22T12:24:48;9.85;;;6.30;;
65368;SDS011;51970;53.484;49.488;2022-10-22T12:27:36;6.60;;;4.47;;
65368;SDS011;51970;53.484;49.488;2022-10-22T12:30:21;7.10;;;4.85;;
65368;SDS011;51970;53.484;49.488;2022-10-22T12:33:00;9.40;;;5.03;;
65368;SDS011;51970;53.484;49.488;2022-10-22T12:36:03;13.30;;;4.82;;
65368;SDS011;51970;53.484;49.488;2022-10-22T12:39:24;11.40;;;4.30;;
65368;SDS011;51970;53.484;49.488;2022-10-22T12:41:54;6.03;;;4.88;;
65368;SDS011;51970;53.484;49.488;2022-10-22T12:44:31;11.38;;;4.85;;
65368;SDS011;51970;53.484;49.488;2022-10-22T12:46:57;12.98;;;4.60;;
65368;SDS011;51970;53.484;49.488;2022-10-22T12:49:26;8.75;;;4.68;;
65368;SDS011;51970;53.484;49.488;2022-10-22T12:52:04;10.32;;;5.18;;
65368;SDS011;51970;53.484;49.488;2022-10-22T12:54:43;12.77;;;6.30;;
65368;SDS011;51970;53.484;49.488;2022-10-22T12:57:17;11.82;;;6.07;;
65368;SDS011;51970;53.484;49.488;2022-10-22T12:59:50;15.02;;;6.93;;
65368;SDS011;51970;53.484;49.488;2022-10-22T13:02:23;10.23;;;5.25;;
65368;SDS011;51970;53.484;49.488;2022-10-22T13:05:09;9.93;;;5.13;;
65368;SDS011;51970;53.484;49.488;2022-10-22T13:08:11;10.80;;;4.97;;
65368;SDS011;51970;53.484;49.488;2022-10-22T13:10:50;9.55;;;4.82;;
65368;SDS011;51970;53.484;49.488;2022-10-22T13:13:29;10.60;;;4.93;;
65368;SDS011;51970;53.484;49.488;2022-10-22T13:16:14;8.63;;;5.20;;
65368;SDS011;51970;53.484;49.488;2022-10-22T13:18:46;9.73;;;5.78;;
65368;SDS011;51970;53.484;49.488;2022-10-22T13:24:21;9.80;;;4.90;;
65368;SDS011;51970;53.484;49.488;2022-10-22T13:27:30;10.90;;;5.28;;
65368;SDS011;51970;53.484;49.488;2022-10-22T13:30:32;10.48;;;5.45;;
65368;SDS011;51970;53.484;49.488;2022-10-22T13:35:30;9.20;;;5.32;;
65368;SDS011;51970;53.484;49.488;2022-10-22T13:37:58;14.55;;;7.45;;
65368;SDS011;51970;53.484;49.488;2022-10-22T13:40:31;9.63;;;5.50;;
65368;SDS011;51970;53.484;49.488;2022-10-22T13:43:46;17.80;;;6.80;;
65368;SDS011;51970;53.484;49.488;2022-10-22T13:46:20;15.35;;;6.95;;
65368;SDS011;51970;53.484;49.488;2022-10-22T13:49:57;12.88;;;8.02;;
65368;SDS011;51970;53.484;49.488;2022-10-22T13:55:25;23.58;;;7.90;;
65368;SDS011;51970;53.484;49.488;2022-10-22T13:57:55;14.77;;;7.18;;
65368;SDS011;51970;53.484;49.488;2022-10-22T14:00:25;11.05;;;5.72;;
65368;SDS011;51970;53.484;49.488;2022-10-22T14:02:52;18.48;;;6.60;;
65368;SDS011;51970;53.484;49.488;2022-10-22T14:05:21;16.65;;;7.20;;
65368;SDS011;51970;53.484;49.488;2022-10-22T14:07:54;22.50;;;9.85;;
65368;SDS011;51970;53.484;49.488;2022-10-22T14:10:26;35.67;;;12.05;;
65368;SDS011;51970;53.484;49.488;2022-10-22T14:12:53;40.38;;;15.40;;
65368;SDS011;51970;53.484;49.488;2022-10-22T14:15:20;28.77;;;13.02;;
65368;SDS011;51970;53.484;49.488;2022-10-22T14:18:07;39.97;;;13.13;;
65368;SDS011;51970;53.484;49.488;2022-10-22T14:20:43;35.13;;;14.55;;
65368;SDS011;51970;53.484;49.488;2022-10-22T14:23:14;35.30;;;14.75;;
65368;SDS011;51970;53.484;49.488;2022-10-22T14:25:50;36.97;;;15.13;;
65368;SDS011;51970;53.484;49.488;2022-10-22T14:28:20;42.95;;;18.70;;
65368;SDS011;51970;53.484;49.488;2022-10-22T14:30:48;35.50;;;18.58;;
65368;SDS011;51970;53.484;49.488;2022-10-22T14:33:22;42.15;;;16.02;;
65368;SDS011;51970;53.484;49.488;2022-10-22T14:35:52;40.33;;;15.63;;
65368;SDS011;51970;53.484;49.488;2022-10-22T14:38:18;32.50;;;13.57;;
65368;SDS011;51970;53.484;49.488;2022-10-22T14:40:46;39.70;;;13.45;;
65368;SDS011;51970;53.484;49.488;2022-10-22T14:43:13;34.70;;;14.20;;
65368;SDS011;51970;53.484;49.488;2022-10-22T14:45:46;36.88;;;13.95;;
65368;SDS011;51970;53.484;49.488;2022-10-22T14:48:12;31.90;;;14.77;;
65368;SDS011;51970;53.484;49.488;2022-10-22T14:50:38;49.38;;;19.67;;
65368;SDS011;51970;53.484;49.488;2022-10-22T14:53:05;36.10;;;16.38;;
65368;SDS011;51970;53.484;49.488;2022-10-22T14:55:31;34.30;;;18.88;;
65368;SDS011;51970;53.484;49.488;2022-10-22T14:57:57;38.28;;;21.63;;
65368;SDS011;51970;53.484;49.488;2022-10-22T15:00:26;46.95;;;21.23;;
65368;SDS011;51970;53.484;49.488;2022-10-22T15:03:18;46.92;;;20.42;;
65368;SDS011;51970;53.484;49.488;2022-10-22T15:05:58;53.75;;;22.08;;
65368;SDS011;51970;53.484;49.488;2022-10-22T15:09:18;42.08;;;19.35;;
65368;SDS011;51970;53.484;49.488;2022-10-22T15:12:05;29.05;;;13.48;;
65368;SDS011;51970;53.484;49.488;2022-10-22T15:14:35;19.83;;;9.40;;
65368;SDS011;51970;53.484;49.488;2022-10-22T15:17:02;39.50;;;10.32;;
65368;SDS011;51970;53.484;49.488;2022-10-22T15:19:33;26.70;;;10.30;;
65368;SDS011;51970;53.484;49.488;2022-10-22T15:22:01;22.17;;;10.43;;
65368;SDS011;51970;53.484;49.488;2022-10-22T15:24:32;27.75;;;11.00;;
65368;SDS011;51970;53.484;49.488;2022-10-22T15:27:16;30.35;;;9.57;;
65368;SDS011;51970;53.484;49.488;2022-10-22T15:29:42;29.65;;;9.55;;
65368;SDS011;51970;53.484;49.488;2022-10-22T15:32:10;26.50;;;9.57;;
65368;SDS011;51970;53.484;49.488;2022-10-22T15:34:37;34.95;;;14.25;;
65368;SDS011;51970;53.484;49.488;2022-10-22T15:37:07;30.25;;;12.65;;
65368;SDS011;51970;53.484;49.488;2022-10-22T15:39:39;37.17;;;13.82;;
65368;SDS011;51970;53.484;49.488;2022-10-22T15:42:05;26.23;;;10.10;;
65368;SDS011;51970;53.484;49.488;2022-10-22T15:44:34;38.13;;;12.50;;
65368;SDS011;51970;53.484;49.488;2022-10-22T15:47:10;28.27;;;14.38;;
65368;SDS011;51970;53.484;49.488;2022-10-22T15:49:37;36.47;;;13.68;;
65368;SDS011;51970;53.484;49.488;2022-10-22T15:52:05;36.95;;;13.48;;
65368;SDS011;51970;53.484;49.488;2022-10-22T15:54:35;31.80;;;13.35;;
65368;SDS011;51970;53.484;49.488;2022-10-22T15:57:01;25.42;;;11.85;;
65368;SDS011;51970;53.484;49.488;2022-10-22T15:59:33;29.95;;;13.15;;
65368;SDS011;51970;53.484;49.488;2022-10-22T16:02:00;30.83;;;13.60;;
65368;SDS011;51970;53.484;49.488;2022-10-22T16:04:29;30.25;;;13.15;;
65368;SDS011;51970;53.484;49.488;2022-10-22T16:06:56;31.30;;;12.88;;
65368;SDS011;51970;53.484;49.488;2022-10-22T16:09:23;23.40;;;10.73;;
65368;SDS011;51970;53.484;49.488;2022-10-22T16:11:51;27.95;;;13.85;;
65368;SDS011;51970;53.484;49.488;2022-10-22T16:14:34;27.85;;;13.13;;
65368;SDS011;51970;53.484;49.488;2022-10-22T16:17:02;33.80;;;14.23;;
65368;SDS011;51970;53.484;49.488;2022-10-22T16:19:28;38.38;;;14.82;;
65368;SDS011;51970;53.484;49.488;2022-10-22T16:21:58;28.02;;;8.85;;
65368;SDS011;51970;53.484;49.488;2022-10-22T16:24:38;37.72;;;12.88;;
65368;SDS011;51970;53.484;49.488;2022-10-22T16:27:13;31.02;;;10.15;;
65368;SDS011;51970;53.484;49.488;2022-10-22T16:29:40;34.38;;;13.70;;
65368;SDS011;51970;53.484;49.488;2022-10-22T16:32:08;35.95;;;11.00;;
65368;SDS011;51970;53.484;49.488;2022-10-22T16:34:35;25.25;;;8.35;;
65368;SDS011;51970;53.484;49.488;2022-10-22T16:37:01;28.10;;;12.52;;